Time;durP1;ratioP1;P1;durP2;ratioP2;P2;SDS_P1;SDS_P2;PMS_P1;PMS_P2;Temp;Humidity;BMP_temperature;BMP_pressure;BME280_temperature;BME280_humidity;BME280_pressure;Samples;Min_cycle;Max_cycle;Signal;HPM_P1;HPM_P2
2022/07/03 00:01:34;;;;;;;16.25;7.95;;;;;;;24.86;50.27;101133.63;10484860;28;20049;-77
2022/07/03 00:06:37;;;;;;;14.20;7.05;;;;;;;24.81;50.35;101127.47;10483950;28;20049;-83
2022/07/03 00:11:39;;;;;;;12.93;6.85;;;;;;;24.73;49.66;101123.72;10466724;28;20038;-81
2022/07/03 00:16:41;;;;;;;10.07;6.75;;;;;;;24.68;50.57;101121.19;10467686;28;20044;-81
2022/07/03 00:22:11;;;;;;;12.10;6.82;;;;;;;24.65;50.38;101135.97;10473974;28;20423;-81
2022/07/03 00:27:15;;;;;;;12.35;6.88;;;;;;;24.60;50.34;101131.41;10465596;28;20041;-83
2022/07/03 00:32:22;;;;;;;11.65;6.80;;;;;;;24.53;50.51;101122.84;10484384;28;20052;-82
2022/07/03 00:37:25;;;;;;;11.35;6.20;;;;;;;24.46;50.12;101121.84;10464360;28;20045;-82
2022/07/03 00:42:28;;;;;;;10.35;5.88;;;;;;;24.39;50.58;101116.88;10486444;28;20059;-80
2022/07/03 00:47:32;;;;;;;13.23;5.78;;;;;;;24.33;50.59;101119.16;10460464;28;20049;-79
2022/07/03 00:52:36;;;;;;;8.32;5.82;;;;;;;24.27;51.69;101126.16;10471019;28;20511;-79
2022/07/03 00:57:48;;;;;;;9.63;5.95;;;;;;;24.21;51.17;101121.19;10463802;28;20048;-79
2022/07/03 01:02:56;;;;;;;10.18;5.15;;;;;;;24.15;51.54;101115.06;10468983;28;20522;-80
2022/07/03 01:08:05;;;;;;;15.80;6.85;;;;;;;24.12;51.61;101124.16;10470226;28;20518;-80
2022/07/03 01:13:18;;;;;;;11.40;5.95;;;;;;;24.10;52.23;101129.31;10459942;28;20047;-80
2022/07/03 01:18:35;;;;;;;12.25;6.63;;;;;;;24.11;52.41;101133.75;10469463;28;20071;-81
2022/07/03 01:24:11;;;;;;;11.07;6.07;;;;;;;24.12;52.75;101129.78;10488590;28;20032;-80
2022/07/03 01:29:20;;;;;;;13.30;6.30;;;;;;;24.10;52.86;101126.53;10485946;28;20045;-81
2022/07/03 01:34:25;;;;;;;16.88;7.30;;;;;;;24.11;53.04;101127.34;10487614;28;20039;-80
2022/07/03 01:39:28;;;;;;;13.85;7.80;;;;;;;24.13;52.66;101127.81;10484167;28;20499;-80
2022/07/03 01:44:31;;;;;;;11.07;7.20;;;;;;;24.16;53.59;101129.88;10487517;28;20044;-80
2022/07/03 01:49:34;;;;;;;14.43;7.30;;;;;;;24.20;53.81;101130.78;10463742;28;20057;-79
2022/07/03 01:54:42;;;;;;;13.93;7.22;;;;;;;24.25;54.14;101120.09;10446184;28;20045;-81
2022/07/03 01:59:44;;;;;;;16.20;7.97;;;;;;;24.34;53.21;101123.59;10455542;28;20447;-80
2022/07/03 02:05:00;;;;;;;14.07;7.63;;;;;;;24.59;52.33;101128.97;10486759;28;20052;-80
2022/07/03 02:10:06;;;;;;;16.55;8.35;;;;;;;24.78;51.89;101125.41;10486514;28;20056;-80
2022/07/03 02:15:09;;;;;;;14.70;7.72;;;;;;;25.02;51.27;101132.81;10486281;28;20041;-81
2022/07/03 02:20:14;;;;;;;19.40;8.73;;;;;;;25.13;51.64;101125.41;10486418;28;20049;-80
2022/07/03 02:25:22;;;;;;;18.83;8.63;;;;;;;25.29;51.52;101128.16;10443616;28;20048;-81
2022/07/03 02:30:27;;;;;;;18.33;8.55;;;;;;;25.45;51.49;101126.91;10458259;28;20059;-81
2022/07/03 02:35:31;;;;;;;15.45;8.32;;;;;;;25.49;51.50;101127.78;10463603;28;20048;-80
2022/07/03 02:40:43;;;;;;;11.80;7.07;;;;;;;25.41;51.71;101125.22;10485238;28;20052;-80
2022/07/03 02:45:55;;;;;;;15.82;7.30;;;;;;;25.25;52.22;101120.47;10486083;28;20049;-81
2022/07/03 02:51:02;;;;;;;17.15;8.27;;;;;;;25.09;52.21;101122.53;10482414;28;20044;-80
2022/07/03 02:56:16;;;;;;;16.08;7.10;;;;;;;25.03;51.90;101117.59;10482934;28;20041;-80
2022/07/03 03:01:30;;;;;;;17.73;7.80;;;;;;;24.98;51.90;101115.84;10463475;28;20614;-80
2022/07/03 03:06:33;;;;;;;15.90;8.23;;;;;;;25.00;52.52;101113.53;10438222;28;20049;-81
2022/07/03 03:11:38;;;;;;;15.98;8.15;;;;;;;24.96;52.94;101118.19;10444659;28;20049;-81
2022/07/03 03:17:00;;;;;;;19.98;8.55;;;;;;;24.96;53.03;101119.00;10455002;28;20107;-81
2022/07/03 03:22:21;;;;;;;13.23;7.45;;;;;;;25.04;53.26;101113.59;10477556;28;20056;-80
2022/07/03 03:27:23;;;;;;;17.02;7.55;;;;;;;25.10;52.88;101126.16;10469611;28;20037;-80
2022/07/03 03:32:26;;;;;;;11.77;6.45;;;;;;;25.19;53.71;101112.72;10465606;28;20053;-80
2022/07/03 03:37:28;;;;;;;11.77;7.65;;;;;;;25.25;53.42;101119.66;10473298;28;20045;-80
2022/07/03 03:42:30;;;;;;;16.95;9.38;;;;;;;25.28;53.44;101115.31;10488378;28;20040;-81
2022/07/03 03:47:33;;;;;;;16.35;8.35;;;;;;;25.34;52.83;101117.47;10488887;28;20045;-80
2022/07/03 03:52:35;;;;;;;17.30;8.30;;;;;;;25.47;52.68;101116.09;10465170;28;20049;-80
2022/07/03 03:57:38;;;;;;;13.32;6.40;;;;;;;25.76;52.11;101117.50;10466258;28;20156;-81
2022/07/03 04:02:40;;;;;;;15.75;7.57;;;;;;;26.04;52.01;101111.59;10445237;28;20057;-81
2022/07/03 04:07:42;;;;;;;15.27;8.63;;;;;;;26.05;52.21;101101.97;10452841;28;20049;-81
2022/07/03 04:12:44;;;;;;;16.20;8.82;;;;;;;26.07;51.77;101104.41;10487880;28;20060;-81
2022/07/03 04:17:51;;;;;;;13.15;7.07;;;;;;;26.11;51.71;101105.28;10497776;28;20044;-81
2022/07/03 04:22:53;;;;;;;12.23;7.35;;;;;;;26.17;52.17;101108.59;10480571;28;20049;-82
2022/07/03 04:27:55;;;;;;;16.52;8.05;;;;;;;26.18;52.18;101105.38;10445417;28;20420;-81
2022/07/03 04:32:57;;;;;;;12.80;8.52;;;;;;;26.00;52.87;101105.09;10453614;28;20044;-81
2022/07/03 04:37:59;;;;;;;16.15;7.88;;;;;;;26.02;53.27;101108.31;10466239;28;20526;-81
2022/07/03 04:43:02;;;;;;;11.13;7.03;;;;;;;26.07;52.84;101102.41;10487642;28;20045;-81
2022/07/03 04:48:04;;;;;;;12.57;8.20;;;;;;;26.31;52.87;101104.00;10476600;28;20052;-81
2022/07/03 04:53:06;;;;;;;13.52;7.30;;;;;;;26.66;51.67;101112.22;10479257;28;20056;-81
2022/07/03 04:58:08;;;;;;;12.25;6.40;;;;;;;26.73;52.32;101105.91;10475756;28;20084;-81
2022/07/03 05:03:14;;;;;;;11.60;7.07;;;;;;;26.76;51.94;101107.97;10451801;28;20044;-80
2022/07/03 05:08:16;;;;;;;15.43;8.52;;;;;;;26.71;52.79;101111.09;10479136;28;20055;-81
2022/07/03 05:13:18;;;;;;;12.82;8.43;;;;;;;26.65;53.29;101109.78;10491574;28;20061;-81
2022/07/03 05:18:20;;;;;;;17.23;9.00;;;;;;;26.85;52.46;101099.22;10481546;28;20467;-80
2022/07/03 05:23:23;;;;;;;10.85;7.70;;;;;;;27.13;52.29;101101.66;10484352;28;20045;-81
2022/07/03 05:28:25;;;;;;;13.25;9.35;;;;;;;27.44;51.99;101100.44;10468222;28;20049;-81
2022/07/03 05:33:28;;;;;;;14.20;8.63;;;;;;;27.76;49.77;101097.97;10458449;28;20041;-81
2022/07/03 05:43:54;;;;;;;12.50;7.22;;;;;;;27.70;50.03;101091.88;10482559;28;20040;-81
2022/07/03 05:48:56;;;;;;;10.25;6.85;;;;;;;27.79;49.96;101086.75;10485207;28;20036;-82
2022/07/03 05:53:58;;;;;;;11.40;7.13;;;;;;;27.82;49.40;101090.78;10479081;28;20033;-81
2022/07/03 05:59:00;;;;;;;9.15;6.68;;;;;;;27.83;49.43;101104.50;10465046;28;20634;-81
2022/07/03 06:04:03;;;;;;;8.88;6.25;;;;;;;27.76;49.92;101095.16;10469535;28;20057;-80
2022/07/03 06:09:05;;;;;;;9.73;6.70;;;;;;;27.65;48.99;101097.06;10466887;28;20071;-81
2022/07/03 06:14:07;;;;;;;9.90;7.47;;;;;;;27.62;49.07;101098.63;10468073;28;20049;-81
2022/07/03 06:19:10;;;;;;;8.82;7.07;;;;;;;27.74;49.54;101089.91;10486167;28;20060;-82
2022/07/03 06:24:12;;;;;;;9.68;6.72;;;;;;;27.72;49.67;101086.66;10450514;28;20045;-82
2022/07/03 06:29:14;;;;;;;8.40;6.72;;;;;;;27.91;49.57;101094.91;10460458;28;20041;-82
2022/07/03 06:34:16;;;;;;;10.40;7.45;;;;;;;28.03;48.82;101095.81;10481821;28;20471;-82
2022/07/03 06:39:18;;;;;;;10.00;7.05;;;;;;;28.34;48.73;101100.16;10467159;28;20037;-82
2022/07/03 06:44:20;;;;;;;8.38;7.15;;;;;;;28.48;48.08;101095.44;10462202;28;20059;-82
2022/07/03 06:49:23;;;;;;;10.20;6.43;;;;;;;28.64;48.88;101094.31;10480835;28;20045;-83
2022/07/03 06:54:25;;;;;;;10.32;6.88;;;;;;;29.05;47.81;101092.97;10451106;28;20044;-83
2022/07/03 06:59:27;;;;;;;9.38;7.65;;;;;;;29.20;47.22;101101.50;10454335;28;20423;-83
2022/07/03 07:04:30;;;;;;;9.55;7.88;;;;;;;29.05;48.00;101106.28;10479500;28;20048;-82
2022/07/03 07:09:33;;;;;;;11.18;8.27;;;;;;;28.95;49.15;101104.19;10482209;28;20152;-83
2022/07/03 07:14:35;;;;;;;10.85;7.72;;;;;;;28.77;49.35;101102.06;10482021;28;20041;-82
2022/07/03 07:19:38;;;;;;;11.65;6.97;;;;;;;28.89;49.12;101100.94;10479199;28;20060;-82
2022/07/03 07:24:40;;;;;;;9.13;7.05;;;;;;;28.93;49.35;101106.63;10475576;28;20432;-83
2022/07/03 07:29:43;;;;;;;8.93;7.00;;;;;;;29.17;49.43;101111.59;10481871;28;20048;-82
2022/07/03 07:34:45;;;;;;;10.30;7.72;;;;;;;29.34;49.26;101113.69;10453241;28;20037;-82
2022/07/03 07:39:47;;;;;;;9.15;7.85;;;;;;;29.33;49.32;101129.03;10482807;28;20041;-82
2022/07/03 07:44:50;;;;;;;11.32;7.72;;;;;;;29.24;51.38;101124.94;10448876;28;20057;-82
2022/07/03 07:49:52;;;;;;;10.73;7.90;;;;;;;29.12;53.19;101132.56;10475313;28;20049;-82
2022/07/03 07:54:54;;;;;;;9.02;7.03;;;;;;;28.91;53.70;101138.09;10491839;28;20135;-82
2022/07/03 07:59:56;;;;;;;7.85;6.28;;;;;;;28.60;55.66;101149.94;10492041;28;20057;-81
2022/07/03 08:10:20;;;;;;;10.45;6.63;;;;;;;28.76;55.58;101144.81;10491405;28;20041;-82
2022/07/03 08:15:22;;;;;;;8.23;6.25;;;;;;;28.93;54.74;101146.97;10491563;28;20056;-82
2022/07/03 08:20:24;;;;;;;8.10;6.78;;;;;;;28.90;55.04;101150.59;10490739;28;20171;-81
2022/07/03 08:25:27;;;;;;;11.05;6.78;;;;;;;29.15;54.29;101144.25;10490744;28;20057;-82
2022/07/03 08:30:29;;;;;;;7.43;5.50;;;;;;;29.25;54.19;101143.53;10490586;28;20649;-81
2022/07/03 08:35:32;;;;;;;8.68;6.28;;;;;;;29.20;54.39;101146.75;10490365;28;20053;-81
2022/07/03 08:40:34;;;;;;;7.65;6.13;;;;;;;29.01;53.97;101151.47;10472724;28;20052;-81
2022/07/03 08:45:40;;;;;;;7.50;5.38;;;;;;;28.74;55.13;101150.88;10489821;28;20528;-82
2022/07/03 08:50:42;;;;;;;7.85;5.95;;;;;;;28.52;53.35;101146.28;10453854;28;20128;-82
2022/07/03 08:55:45;;;;;;;7.97;5.35;;;;;;;28.60;52.46;101142.28;10487533;28;20053;-82
2022/07/03 09:00:47;;;;;;;7.88;6.00;;;;;;;28.67;52.23;101150.00;10487655;28;20041;-82
2022/07/03 09:05:50;;;;;;;5.72;4.88;;;;;;;28.80;51.55;101154.13;10489143;28;20505;-81
2022/07/03 09:10:53;;;;;;;6.93;5.22;;;;;;;28.82;52.14;101152.56;10471406;28;20061;-82
2022/07/03 09:15:55;;;;;;;5.85;4.57;;;;;;;29.08;51.30;101150.69;10481654;28;20036;-81
2022/07/03 09:21:02;;;;;;;5.30;4.47;;;;;;;29.29;52.31;101150.81;10487818;28;20045;-82
2022/07/03 09:26:05;;;;;;;8.60;5.40;;;;;;;29.67;50.75;101142.88;10470357;28;20040;-83
2022/07/03 09:31:07;;;;;;;6.07;4.20;;;;;;;29.71;50.45;101143.72;10486635;28;20942;-82
2022/07/03 09:36:09;;;;;;;6.45;5.15;;;;;;;29.66;49.83;101139.25;10486629;28;20037;-81
2022/07/03 09:41:12;;;;;;;4.60;4.18;;;;;;;29.33;49.04;101128.19;10488074;28;20052;-81
2022/07/03 09:46:14;;;;;;;4.60;4.15;;;;;;;29.05;49.36;101143.03;10479315;28;20056;-82
2022/07/03 09:51:26;;;;;;;9.68;5.10;;;;;;;28.80;51.06;101146.47;10453342;28;20518;-82
2022/07/03 09:56:36;;;;;;;6.22;4.15;;;;;;;28.68;51.50;101143.97;10455912;28;20045;-81
2022/07/03 10:01:41;;;;;;;4.72;3.70;;;;;;;28.56;52.35;101154.75;10468747;28;20040;-81
2022/07/03 10:07:00;;;;;;;5.15;4.43;;;;;;;28.27;52.32;101157.34;10482728;28;20033;-80
2022/07/03 10:12:03;;;;;;;5.30;4.38;;;;;;;28.10;54.14;101155.94;10487500;28;20425;-80
2022/07/03 10:17:05;;;;;;;4.95;4.07;;;;;;;28.00;54.33;101153.03;10463871;28;20049;-80
2022/07/03 10:22:19;;;;;;;6.90;5.10;;;;;;;27.86;54.13;101153.69;10474159;28;20056;-80
2022/07/03 10:27:22;;;;;;;5.25;4.53;;;;;;;27.80;54.38;101160.88;10486314;28;20504;-79
2022/07/03 10:32:25;;;;;;;4.88;4.22;;;;;;;27.67;54.89;101165.16;10483545;28;20079;-79
2022/07/03 10:37:33;;;;;;;6.13;4.50;;;;;;;27.47;55.94;101164.50;10463034;28;20055;-79
2022/07/03 10:47:57;;;;;;;6.07;4.50;;;;;;;27.08;57.97;101176.06;10485514;28;20135;-79
2022/07/03 10:53:22;;;;;;;5.28;4.15;;;;;;;26.88;58.06;101168.84;10483943;28;20044;-81
2022/07/03 10:58:29;;;;;;;4.38;3.97;;;;;;;26.69;58.96;101167.78;10479538;28;20049;-80
2022/07/03 11:03:57;;;;;;;7.63;5.05;;;;;;;26.50;58.87;101156.59;10444287;28;20052;-78
2022/07/03 11:09:04;;;;;;;7.15;4.60;;;;;;;26.41;59.12;101158.88;10480069;28;20041;-79
2022/07/03 11:14:19;;;;;;;;;;;;;;;26.12;59.29;101166.78;10486155;28;20048;-80
2022/07/03 11:19:30;;;;;;;3.75;2.83;;;;;;;25.96;59.02;101168.91;10475827;28;19920;-80
2022/07/03 11:24:38;;;;;;;4.35;3.40;;;;;;;25.97;58.75;101161.28;10459544;28;20049;-79
2022/07/03 11:29:41;;;;;;;6.97;3.85;;;;;;;26.10;56.51;101160.72;10484126;28;20052;-80
2022/07/03 11:34:43;;;;;;;5.60;4.32;;;;;;;26.21;55.68;101158.13;10471760;28;20040;-80
2022/07/03 11:39:48;;;;;;;4.13;3.25;;;;;;;26.16;55.05;101147.16;10488969;28;20057;-80
2022/07/03 11:44:51;;;;;;;6.00;3.80;;;;;;;26.26;54.38;101137.28;10426331;28;20050;-81
2022/07/03 11:49:54;;;;;;;4.82;3.42;;;;;;;26.45;54.88;101131.59;10424462;28;20052;-82
2022/07/03 11:54:57;;;;;;;4.25;3.25;;;;;;;26.74;54.80;101132.88;10486086;28;20048;-81
2022/07/03 12:00:05;;;;;;;4.13;3.28;;;;;;;26.87;54.57;101125.00;10490638;28;20079;-77
2022/07/03 12:05:15;;;;;;;8.43;3.97;;;;;;;26.98;53.73;101132.41;10418444;28;20054;-77
2022/07/03 12:10:18;;;;;;;3.35;2.97;;;;;;;27.02;53.01;101129.66;10436386;28;20060;-78
2022/07/03 12:15:21;;;;;;;4.18;3.50;;;;;;;27.03;53.40;101120.03;10450559;28;20049;-77
2022/07/03 12:20:26;;;;;;;4.75;3.47;;;;;;;26.90;53.58;101127.88;10441797;28;20050;-77
2022/07/03 12:25:29;;;;;;;4.70;2.88;;;;;;;26.71;53.81;101123.16;10459767;28;20045;-79
2022/07/03 12:30:31;;;;;;;3.65;3.13;;;;;;;26.59;54.36;101126.22;10449644;28;20037;-79
2022/07/03 12:35:34;;;;;;;4.38;2.97;;;;;;;26.56;54.69;101128.97;10464001;28;20057;-79
2022/07/03 12:40:36;;;;;;;4.35;3.25;;;;;;;26.58;53.99;101135.84;10451240;28;20044;-80
2022/07/03 12:45:39;;;;;;;5.13;3.65;;;;;;;26.62;55.29;101125.44;10487096;28;20043;-81
2022/07/03 12:50:51;;;;;;;4.68;3.10;;;;;;;26.69;54.73;101122.72;10487200;28;20048;-79
2022/07/03 12:55:54;;;;;;;4.03;2.80;;;;;;;26.69;53.98;101124.72;10483405;28;20041;-78
2022/07/03 13:00:57;;;;;;;4.75;2.97;;;;;;;26.70;53.27;101127.16;10482952;28;20059;-77
2022/07/03 13:05:59;;;;;;;4.13;3.72;;;;;;;26.72;54.04;101138.84;10485634;28;20076;-77
2022/07/03 13:11:01;;;;;;;6.95;3.42;;;;;;;26.78;53.22;101130.91;10483512;28;20543;-81
2022/07/03 13:16:25;;;;;;;4.90;3.35;;;;;;;26.88;53.36;101133.06;10480374;28;20519;-80
2022/07/03 13:21:28;;;;;;;3.17;2.88;;;;;;;26.97;53.96;101116.72;10482768;28;20051;-84
2022/07/03 13:26:30;;;;;;;4.72;2.95;;;;;;;27.01;54.78;101113.97;10486356;28;20036;-85
2022/07/03 13:31:33;;;;;;;4.18;3.50;;;;;;;27.08;53.58;101111.25;10479644;28;20045;-83
2022/07/03 13:36:35;;;;;;;3.30;2.85;;;;;;;27.03;52.75;101108.75;10485200;28;20037;-82
2022/07/03 13:41:38;;;;;;;4.68;3.08;;;;;;;27.01;52.48;101108.31;10468057;28;20037;-89
2022/07/03 13:46:40;;;;;;;4.72;3.13;;;;;;;26.95;52.42;101110.66;10485480;28;20048;-90
2022/07/03 13:51:42;;;;;;;4.40;2.97;;;;;;;26.78;53.66;101114.03;10463331;28;20124;-82
2022/07/03 13:56:45;;;;;;;3.60;3.15;;;;;;;26.65;56.22;101109.78;10462334;28;20135;-78
2022/07/03 14:01:47;;;;;;;4.55;3.15;;;;;;;26.45;57.81;101103.47;10484675;28;20048;-78
2022/07/03 14:06:50;;;;;;;4.95;3.30;;;;;;;26.24;58.83;101100.28;10475536;28;20044;-79
2022/07/03 14:11:52;;;;;;;3.70;3.05;;;;;;;26.08;60.06;101104.03;10454279;28;20412;-76
2022/07/03 14:16:54;;;;;;;3.63;3.20;;;;;;;26.00;59.32;101095.84;10463958;28;20049;-77
2022/07/03 14:21:56;;;;;;;3.90;3.45;;;;;;;25.88;59.72;101102.47;10453179;28;20042;-82
2022/07/03 14:32:29;;;;;;;5.05;3.72;;;;;;;25.62;58.93;101102.34;10447321;28;20116;-84
2022/07/03 14:37:32;;;;;;;6.20;3.35;;;;;;;25.55;59.26;101111.47;10452250;28;20159;-84
2022/07/03 14:42:34;;;;;;;4.60;3.20;;;;;;;25.62;58.69;101116.38;10465531;28;20044;-81
2022/07/03 14:47:37;;;;;;;3.30;3.00;;;;;;;25.57;58.18;101113.88;10466523;28;20041;-81
2022/07/03 14:52:39;;;;;;;2.72;2.47;;;;;;;25.55;58.63;101117.88;10447208;28;20041;-83
2022/07/03 14:57:56;;;;;;;4.57;3.22;;;;;;;25.46;60.04;101116.47;10462691;28;20610;-83
2022/07/03 15:03:07;;;;;;;5.68;2.60;;;;;;;25.25;60.36;101126.09;10476588;28;20038;-85
2022/07/03 15:08:14;;;;;;;4.93;2.90;;;;;;;24.98;60.95;101131.88;10485111;28;20041;-87
2022/07/03 15:13:17;;;;;;;3.42;2.45;;;;;;;24.89;61.48;101127.28;10475826;28;20044;-85
2022/07/03 15:18:22;;;;;;;2.38;2.15;;;;;;;24.70;61.12;101121.63;10489869;28;20400;-85
2022/07/03 15:23:25;;;;;;;3.95;3.13;;;;;;;24.69;61.56;101128.44;10492292;28;20045;-85
2022/07/03 15:28:29;;;;;;;2.92;2.63;;;;;;;24.53;62.19;101127.63;10491776;28;20040;-85
2022/07/03 15:33:31;;;;;;;2.63;2.13;;;;;;;24.35;62.93;101128.00;10471485;28;20583;-83
2022/07/03 15:38:38;;;;;;;3.35;2.47;;;;;;;24.03;64.01;101131.97;10454057;28;20057;-83
2022/07/03 15:43:53;;;;;;;2.47;2.08;;;;;;;23.82;64.46;101114.56;10432792;28;20443;-83
2022/07/03 15:49:04;;;;;;;3.45;2.42;;;;;;;23.69;65.02;101128.66;10466032;28;20045;-83
2022/07/03 15:54:09;;;;;;;2.30;2.10;;;;;;;23.74;63.60;101119.97;10492592;28;20056;-83
2022/07/03 15:59:13;;;;;;;1.73;1.63;;;;;;;23.67;61.90;101135.78;10474342;28;20435;-83
2022/07/03 16:04:27;;;;;;;2.85;1.38;;;;;;;23.59;62.64;101133.94;10492101;28;20064;-83
2022/07/03 16:09:30;;;;;;;2.35;1.50;;;;;;;23.56;63.02;101129.84;10467943;28;20527;-83
2022/07/03 16:14:34;;;;;;;2.83;1.70;;;;;;;23.54;62.66;101123.78;10490688;28;20056;-83
2022/07/03 16:19:39;;;;;;;2.10;1.48;;;;;;;23.35;61.25;101123.63;10436575;28;20048;-82
2022/07/03 16:24:43;;;;;;;2.50;1.80;;;;;;;23.30;61.40;101119.13;10449796;28;20037;-82
2022/07/03 16:29:47;;;;;;;4.10;1.40;;;;;;;23.28;62.60;101124.25;10449735;28;20068;-83
2022/07/03 16:35:06;;;;;;;2.60;1.67;;;;;;;23.26;63.78;101126.59;10432373;28;20041;-82
2022/07/03 16:40:08;;;;;;;3.53;1.63;;;;;;;23.13;63.78;101137.00;10449025;28;20049;-83
2022/07/03 16:45:12;;;;;;;5.32;1.90;;;;;;;23.17;64.61;101137.94;10449056;28;20045;-82
2022/07/03 16:50:19;;;;;;;2.65;1.80;;;;;;;23.05;65.16;101135.16;10448925;28;20038;-82
2022/07/03 16:55:22;;;;;;;2.65;1.65;;;;;;;22.86;65.70;101144.16;10431275;28;20044;-83
2022/07/03 17:00:28;;;;;;;2.13;1.85;;;;;;;22.76;66.13;101147.44;10453396;28;20057;-82
2022/07/03 17:05:30;;;;;;;5.68;2.05;;;;;;;22.75;66.15;101145.00;10448223;28;20052;-82
2022/07/03 17:10:32;;;;;;;2.25;1.85;;;;;;;22.67;66.22;101151.50;10414284;28;20041;-83
2022/07/03 17:15:34;;;;;;;6.97;2.58;;;;;;;22.60;65.68;101151.28;10448763;28;20045;-83
2022/07/03 17:20:39;;;;;;;3.50;1.92;;;;;;;22.43;66.46;101155.13;10446823;28;20041;-82
2022/07/03 17:25:59;;;;;;;3.67;1.95;;;;;;;22.41;65.64;101158.28;10445720;28;20389;-82
2022/07/03 17:31:06;;;;;;;2.25;1.83;;;;;;;22.42;65.31;101153.50;10447205;28;20073;-82
2022/07/03 17:36:20;;;;;;;3.90;1.90;;;;;;;22.35;65.33;101144.88;10429273;28;20550;-81
2022/07/03 17:41:27;;;;;;;2.95;1.98;;;;;;;22.47;64.25;101145.69;10446432;28;20053;-82
2022/07/03 17:46:30;;;;;;;3.75;1.90;;;;;;;22.48;63.47;101150.13;10429769;28;20508;-82
2022/07/03 17:51:33;;;;;;;4.38;1.70;;;;;;;22.45;63.20;101150.81;10446296;28;20053;-82
2022/07/03 17:56:35;;;;;;;3.67;2.00;;;;;;;22.48;63.17;101147.31;10446203;28;20045;-82
2022/07/03 18:01:37;;;;;;;2.65;1.48;;;;;;;22.37;62.58;101142.53;10428328;28;20042;-82
2022/07/03 18:06:41;;;;;;;3.70;1.38;;;;;;;22.29;62.36;101155.47;10428141;28;20037;-82
2022/07/03 18:11:56;;;;;;;2.28;1.33;;;;;;;22.26;61.97;101150.56;10444995;28;20136;-84
2022/07/03 18:17:00;;;;;;;1.50;1.40;;;;;;;22.21;62.03;101153.56;10427980;28;20103;-82
2022/07/03 18:22:04;;;;;;;1.27;1.15;;;;;;;22.17;61.62;101159.06;10428000;28;20052;-83
2022/07/03 18:27:11;;;;;;;4.25;1.75;;;;;;;22.24;61.59;101158.50;10445228;28;20042;-83
2022/07/03 18:32:16;;;;;;;2.03;1.60;;;;;;;22.22;60.79;101160.84;10444903;28;20041;-83
2022/07/03 18:37:21;;;;;;;1.85;1.60;;;;;;;22.26;59.76;101162.56;10444241;28;20052;-83
2022/07/03 18:42:24;;;;;;;4.70;1.55;;;;;;;22.29;60.27;101163.84;10443723;28;20046;-83
2022/07/03 18:47:26;;;;;;;2.80;1.63;;;;;;;22.29;60.01;101161.06;10427055;28;20693;-83
2022/07/03 18:52:44;;;;;;;1.85;1.67;;;;;;;22.22;60.06;101166.41;10438774;28;20037;-84
2022/07/03 18:57:52;;;;;;;4.50;1.58;;;;;;;22.15;60.44;101169.78;10500822;28;20049;-82
2022/07/03 19:02:56;;;;;;;2.90;1.77;;;;;;;22.05;61.63;101158.25;10488721;28;20061;-82
2022/07/03 19:08:10;;;;;;;1.52;1.35;;;;;;;21.87;62.38;101163.97;10486227;28;20054;-83
2022/07/03 19:13:12;;;;;;;1.70;1.40;;;;;;;21.74;63.29;101156.72;10459830;28;20052;-83
2022/07/03 19:18:15;;;;;;;1.60;1.48;;;;;;;21.65;63.51;101161.56;10435567;28;20034;-83
2022/07/03 19:23:17;;;;;;;1.70;1.38;;;;;;;21.56;63.46;101158.88;10463631;28;20053;-82
2022/07/03 19:28:23;;;;;;;1.63;1.30;;;;;;;21.68;63.63;101150.50;10442837;28;20049;-84
2022/07/03 19:33:26;;;;;;;;;;;;;;;21.58;64.31;101153.75;10462480;28;20447;-80
2022/07/03 19:38:28;;;;;;;1.50;1.30;;;;;;;21.60;63.80;101153.41;10483414;28;19921;-79
2022/07/03 19:43:31;;;;;;;3.08;1.33;;;;;;;21.51;64.13;101150.69;10481821;28;20056;-80
2022/07/03 19:48:33;;;;;;;2.65;1.27;;;;;;;21.39;64.76;101156.22;10486191;28;20472;-79
2022/07/03 19:53:36;;;;;;;2.30;1.67;;;;;;;21.24;65.31;101154.88;10455434;28;20051;-80
2022/07/03 19:58:39;;;;;;;3.50;1.30;;;;;;;21.19;65.82;101151.44;10486535;28;20045;-82
2022/07/03 20:03:41;;;;;;;2.17;1.10;;;;;;;21.18;65.37;101156.22;10470589;28;20041;-82
2022/07/03 20:08:43;;;;;;;1.45;1.35;;;;;;;21.18;66.01;101155.41;10489379;28;20049;-81
2022/07/03 20:13:45;;;;;;;2.08;1.00;;;;;;;21.21;65.49;101149.94;10470077;28;20045;-81
2022/07/03 20:18:48;;;;;;;1.30;1.13;;;;;;;21.14;65.88;101149.66;10464668;28;20496;-81
2022/07/03 20:29:11;;;;;;;2.70;1.48;;;;;;;21.23;65.75;101147.63;10475298;28;20435;-81
2022/07/03 20:34:14;;;;;;;2.20;1.25;;;;;;;21.26;65.70;101146.97;10488904;28;20055;-85
2022/07/03 20:39:17;;;;;;;3.15;1.83;;;;;;;21.33;65.97;101158.38;10454247;28;20502;-83
2022/07/03 20:44:22;;;;;;;2.63;1.80;;;;;;;21.38;65.89;101145.41;10457943;28;20041;-85
2022/07/03 20:49:49;;;;;;;2.72;1.48;;;;;;;21.39;65.87;101149.81;10434936;28;20052;-85
2022/07/03 20:54:53;;;;;;;3.20;1.48;;;;;;;21.41;66.52;101158.69;10476414;28;20401;-82
2022/07/03 20:59:55;;;;;;;2.10;1.52;;;;;;;21.32;66.84;101153.97;10472463;28;20049;-77
2022/07/03 21:04:59;;;;;;;3.28;1.80;;;;;;;21.32;66.59;101156.75;10482002;28;20037;-77
2022/07/03 21:10:01;;;;;;;4.30;1.42;;;;;;;21.19;67.26;101155.06;10462351;28;20048;-83
2022/07/03 21:15:04;;;;;;;1.45;1.35;;;;;;;21.25;67.46;101159.28;10443757;28;20033;-83
2022/07/03 21:20:07;;;;;;;1.50;1.40;;;;;;;21.31;67.29;101171.88;10463461;28;20059;-82
2022/07/03 21:25:09;;;;;;;1.50;1.40;;;;;;;21.23;67.89;101160.75;10458849;28;20052;-83
2022/07/03 21:30:12;;;;;;;4.47;1.60;;;;;;;21.20;67.69;101159.47;10442821;28;20036;-82
2022/07/03 21:35:14;;;;;;;7.63;2.05;;;;;;;21.22;69.11;101154.38;10474564;28;20571;-78
2022/07/03 21:40:18;;;;;;;5.53;1.80;;;;;;;21.21;69.43;101157.50;10477474;28;20611;-78
2022/07/03 21:45:20;;;;;;;2.78;1.70;;;;;;;21.22;69.94;101147.97;10455527;28;20729;-76
2022/07/03 21:50:24;;;;;;;1.70;1.60;;;;;;;21.25;70.92;101144.53;10439707;28;20044;-78
2022/07/03 21:55:26;;;;;;;1.60;1.45;;;;;;;21.23;71.15;101142.03;10476309;28;20060;-78
2022/07/03 22:00:29;;;;;;;1.63;1.20;;;;;;;21.19;71.41;101152.25;10478114;28;20068;-78
2022/07/03 22:05:31;;;;;;;2.42;1.45;;;;;;;21.21;71.54;101147.16;10479719;28;20055;-79
2022/07/03 22:10:34;;;;;;;1.33;1.20;;;;;;;21.16;72.16;101141.75;10463128;28;20044;-78
2022/07/03 22:15:37;;;;;;;4.18;1.40;;;;;;;21.16;71.79;101136.16;10459444;28;20043;-79
2022/07/03 22:20:39;;;;;;;1.70;1.60;;;;;;;21.07;72.18;101135.44;10456022;28;20048;-76
2022/07/03 22:25:41;;;;;;;2.80;1.30;;;;;;;21.02;72.13;101130.06;10478392;28;20056;-79
2022/07/03 22:30:44;;;;;;;3.33;1.45;;;;;;;20.93;72.64;101127.31;10477275;28;20539;-78
2022/07/03 22:35:46;;;;;;;2.10;1.48;;;;;;;20.85;72.42;101124.63;10475283;28;20037;-77
2022/07/03 22:40:48;;;;;;;1.73;1.38;;;;;;;20.85;73.07;101130.19;10471525;28;20056;-76
2022/07/03 22:45:50;;;;;;;2.63;1.40;;;;;;;20.75;73.46;101126.63;10474279;28;20106;-77
2022/07/03 22:50:53;;;;;;;3.78;1.88;;;;;;;20.65;74.19;101129.81;10478049;28;20045;-77
2022/07/03 22:55:55;;;;;;;2.72;1.27;;;;;;;20.57;74.01;101125.09;10473702;28;20506;-77
2022/07/03 23:00:57;;;;;;;1.90;1.40;;;;;;;20.48;74.98;101124.34;10475699;28;20064;-77
2022/07/03 23:05:59;;;;;;;2.72;1.45;;;;;;;20.45;75.21;101123.03;10479611;28;20427;-78
2022/07/03 23:11:02;;;;;;;1.55;1.33;;;;;;;20.45;75.59;101122.22;10477777;28;20045;-78
2022/07/03 23:16:05;;;;;;;4.22;1.40;;;;;;;20.43;75.34;101119.75;10472461;28;20049;-78
2022/07/03 23:21:07;;;;;;;1.75;1.42;;;;;;;20.41;75.44;101121.25;10483995;28;20044;-78
2022/07/03 23:26:10;;;;;;;2.90;1.45;;;;;;;20.31;75.22;101110.47;10493706;28;20053;-78
2022/07/03 23:31:12;;;;;;;1.50;1.40;;;;;;;20.27;75.84;101113.09;10487524;28;20101;-78
2022/07/03 23:36:15;;;;;;;1.50;1.20;;;;;;;20.26;75.35;101105.88;10487909;28;20099;-78
2022/07/03 23:41:17;;;;;;;3.28;1.52;;;;;;;20.25;75.83;101101.47;10476162;28;20057;-77